sensor_id;sensor_type;location;lat;lon;timestamp;P1;durP1;ratioP1;P2;durP2;ratioP2
25327;SDS011;13279;51.300;12.394;2024-02-16T00:01:02;5.17;;;4.20;;
25327;SDS011;13279;51.300;12.394;2024-02-16T00:03:29;7.37;;;3.63;;
25327;SDS011;13279;51.300;12.394;2024-02-16T00:05:57;3.83;;;3.17;;
25327;SDS011;13279;51.300;12.394;2024-02-16T00:08:25;5.10;;;3.60;;
25327;SDS011;13279;51.300;12.394;2024-02-16T00:10:54;6.20;;;4.13;;
25327;SDS011;13279;51.300;12.394;2024-02-16T00:13:21;4.27;;;3.87;;
25327;SDS011;13279;51.300;12.394;2024-02-16T00:15:49;3.83;;;3.40;;
25327;SDS011;13279;51.300;12.394;2024-02-16T00:18:16;6.77;;;3.67;;
25327;SDS011;13279;51.300;12.394;2024-02-16T00:20:44;4.10;;;3.63;;
25327;SDS011;13279;51.300;12.394;2024-02-16T00:23:13;7.03;;;3.50;;
25327;SDS011;13279;51.300;12.394;2024-02-16T00:25:40;3.50;;;3.17;;
25327;SDS011;13279;51.300;12.394;2024-02-16T00:28:09;4.30;;;3.83;;
25327;SDS011;13279;51.300;12.394;2024-02-16T00:30:36;4.20;;;3.53;;
25327;SDS011;13279;51.300;12.394;2024-02-16T00:33:04;4.17;;;3.40;;
25327;SDS011;13279;51.300;12.394;2024-02-16T00:35:33;4.73;;;3.60;;
25327;SDS011;13279;51.300;12.394;2024-02-16T00:38:00;4.67;;;4.07;;
25327;SDS011;13279;51.300;12.394;2024-02-16T00:40:27;3.63;;;3.33;;
25327;SDS011;13279;51.300;12.394;2024-02-16T00:42:55;5.37;;;3.43;;
25327;SDS011;13279;51.300;12.394;2024-02-16T00:45:24;6.97;;;3.13;;
25327;SDS011;13279;51.300;12.394;2024-02-16T00:47:51;3.90;;;3.33;;
25327;SDS011;13279;51.300;12.394;2024-02-16T00:50:19;6.23;;;3.80;;
25327;SDS011;13279;51.300;12.394;2024-02-16T00:52:49;4.70;;;3.23;;
25327;SDS011;13279;51.300;12.394;2024-02-16T00:55:16;3.97;;;3.13;;
25327;SDS011;13279;51.300;12.394;2024-02-16T00:57:44;3.67;;;3.30;;
25327;SDS011;13279;51.300;12.394;2024-02-16T01:00:12;7.47;;;3.83;;
25327;SDS011;13279;51.300;12.394;2024-02-16T01:02:42;4.57;;;3.40;;
25327;SDS011;13279;51.300;12.394;2024-02-16T01:05:10;6.37;;;4.03;;
25327;SDS011;13279;51.300;12.394;2024-02-16T01:07:38;4.23;;;3.70;;
25327;SDS011;13279;51.300;12.394;2024-02-16T01:10:07;8.87;;;3.87;;
25327;SDS011;13279;51.300;12.394;2024-02-16T01:12:35;6.40;;;3.73;;
25327;SDS011;13279;51.300;12.394;2024-02-16T01:15:02;4.40;;;3.60;;
25327;SDS011;13279;51.300;12.394;2024-02-16T01:17:31;6.67;;;4.00;;
25327;SDS011;13279;51.300;12.394;2024-02-16T01:20:00;7.80;;;4.50;;
25327;SDS011;13279;51.300;12.394;2024-02-16T01:22:27;5.73;;;4.17;;
25327;SDS011;13279;51.300;12.394;2024-02-16T01:24:55;5.10;;;4.37;;
25327;SDS011;13279;51.300;12.394;2024-02-16T01:27:23;4.13;;;3.73;;
25327;SDS011;13279;51.300;12.394;2024-02-16T01:29:50;5.07;;;3.77;;
25327;SDS011;13279;51.300;12.394;2024-02-16T01:32:18;7.13;;;3.90;;
25327;SDS011;13279;51.300;12.394;2024-02-16T01:34:45;5.43;;;3.97;;
25327;SDS011;13279;51.300;12.394;2024-02-16T01:37:16;6.13;;;4.30;;
25327;SDS011;13279;51.300;12.394;2024-02-16T01:39:44;5.77;;;3.70;;
25327;SDS011;13279;51.300;12.394;2024-02-16T01:42:11;4.63;;;3.93;;
25327;SDS011;13279;51.300;12.394;2024-02-16T01:44:39;5.17;;;3.83;;
25327;SDS011;13279;51.300;12.394;2024-02-16T01:47:07;3.90;;;3.50;;
25327;SDS011;13279;51.300;12.394;2024-02-16T01:49:34;6.53;;;3.77;;
25327;SDS011;13279;51.300;12.394;2024-02-16T01:52:02;6.40;;;4.37;;
25327;SDS011;13279;51.300;12.394;2024-02-16T01:54:32;5.17;;;4.13;;
25327;SDS011;13279;51.300;12.394;2024-02-16T01:56:59;5.70;;;4.20;;
25327;SDS011;13279;51.300;12.394;2024-02-16T01:59:28;6.83;;;4.60;;
25327;SDS011;13279;51.300;12.394;2024-02-16T02:01:55;8.30;;;4.00;;
25327;SDS011;13279;51.300;12.394;2024-02-16T02:04:23;4.67;;;4.07;;
25327;SDS011;13279;51.300;12.394;2024-02-16T02:06:51;6.20;;;4.20;;
25327;SDS011;13279;51.300;12.394;2024-02-16T02:09:18;6.67;;;4.10;;
25327;SDS011;13279;51.300;12.394;2024-02-16T02:11:47;7.30;;;4.57;;
25327;SDS011;13279;51.300;12.394;2024-02-16T02:14:14;7.80;;;4.70;;
25327;SDS011;13279;51.300;12.394;2024-02-16T02:16:41;7.10;;;4.70;;
25327;SDS011;13279;51.300;12.394;2024-02-16T02:19:09;8.87;;;4.53;;
25327;SDS011;13279;51.300;12.394;2024-02-16T02:21:37;8.23;;;4.60;;
25327;SDS011;13279;51.300;12.394;2024-02-16T02:24:06;6.07;;;4.10;;
25327;SDS011;13279;51.300;12.394;2024-02-16T02:26:33;5.40;;;3.87;;
25327;SDS011;13279;51.300;12.394;2024-02-16T02:29:01;5.97;;;3.30;;
25327;SDS011;13279;51.300;12.394;2024-02-16T02:31:29;6.50;;;3.80;;
25327;SDS011;13279;51.300;12.394;2024-02-16T02:33:56;5.77;;;2.90;;
25327;SDS011;13279;51.300;12.394;2024-02-16T02:36:23;4.00;;;2.97;;
25327;SDS011;13279;51.300;12.394;2024-02-16T02:38:52;6.87;;;3.17;;
25327;SDS011;13279;51.300;12.394;2024-02-16T02:41:20;9.33;;;2.70;;
25327;SDS011;13279;51.300;12.394;2024-02-16T02:43:48;5.33;;;3.00;;
25327;SDS011;13279;51.300;12.394;2024-02-16T02:46:15;3.27;;;2.40;;
25327;SDS011;13279;51.300;12.394;2024-02-16T02:48:43;4.40;;;3.00;;
25327;SDS011;13279;51.300;12.394;2024-02-16T02:51:11;5.33;;;3.10;;
25327;SDS011;13279;51.300;12.394;2024-02-16T02:53:39;3.70;;;2.77;;
25327;SDS011;13279;51.300;12.394;2024-02-16T02:56:06;2.87;;;2.63;;
25327;SDS011;13279;51.300;12.394;2024-02-16T02:58:35;7.53;;;2.93;;
25327;SDS011;13279;51.300;12.394;2024-02-16T03:01:05;5.83;;;3.20;;
25327;SDS011;13279;51.300;12.394;2024-02-16T03:03:33;4.97;;;2.90;;
25327;SDS011;13279;51.300;12.394;2024-02-16T03:06:01;6.00;;;3.00;;
25327;SDS011;13279;51.300;12.394;2024-02-16T03:08:29;7.93;;;3.57;;
25327;SDS011;13279;51.300;12.394;2024-02-16T03:10:56;3.67;;;2.77;;
25327;SDS011;13279;51.300;12.394;2024-02-16T03:13:26;5.53;;;3.00;;
25327;SDS011;13279;51.300;12.394;2024-02-16T03:15:55;4.20;;;3.80;;
25327;SDS011;13279;51.300;12.394;2024-02-16T03:18:23;5.53;;;2.90;;
25327;SDS011;13279;51.300;12.394;2024-02-16T03:20:50;5.97;;;2.90;;
25327;SDS011;13279;51.300;12.394;2024-02-16T03:23:17;5.03;;;2.60;;
25327;SDS011;13279;51.300;12.394;2024-02-16T03:25:45;2.90;;;2.43;;
25327;SDS011;13279;51.300;12.394;2024-02-16T03:28:12;4.23;;;3.17;;
25327;SDS011;13279;51.300;12.394;2024-02-16T03:30:41;5.43;;;2.93;;
25327;SDS011;13279;51.300;12.394;2024-02-16T03:33:10;4.07;;;2.67;;
25327;SDS011;13279;51.300;12.394;2024-02-16T03:35:38;7.53;;;2.50;;
25327;SDS011;13279;51.300;12.394;2024-02-16T03:38:06;5.53;;;2.70;;
25327;SDS011;13279;51.300;12.394;2024-02-16T03:40:34;5.60;;;2.80;;
25327;SDS011;13279;51.300;12.394;2024-02-16T03:43:02;4.47;;;2.30;;
25327;SDS011;13279;51.300;12.394;2024-02-16T03:45:29;8.27;;;2.30;;
25327;SDS011;13279;51.300;12.394;2024-02-16T03:47:57;3.50;;;2.70;;
25327;SDS011;13279;51.300;12.394;2024-02-16T03:50:26;2.23;;;2.03;;
25327;SDS011;13279;51.300;12.394;2024-02-16T03:52:53;4.77;;;2.23;;
25327;SDS011;13279;51.300;12.394;2024-02-16T03:55:20;3.30;;;2.63;;
25327;SDS011;13279;51.300;12.394;2024-02-16T03:57:48;2.47;;;2.27;;
25327;SDS011;13279;51.300;12.394;2024-02-16T04:00:15;3.00;;;2.47;;
25327;SDS011;13279;51.300;12.394;2024-02-16T04:02:43;2.93;;;2.13;;
25327;SDS011;13279;51.300;12.394;2024-02-16T04:05:10;3.17;;;2.00;;
25327;SDS011;13279;51.300;12.394;2024-02-16T04:07:39;3.17;;;2.40;;
25327;SDS011;13279;51.300;12.394;2024-02-16T04:10:07;5.00;;;2.57;;
25327;SDS011;13279;51.300;12.394;2024-02-16T04:12:35;3.93;;;2.57;;
25327;SDS011;13279;51.300;12.394;2024-02-16T04:15:03;4.80;;;2.37;;
25327;SDS011;13279;51.300;12.394;2024-02-16T04:17:31;3.73;;;2.50;;
25327;SDS011;13279;51.300;12.394;2024-02-16T04:19:58;5.77;;;2.63;;
25327;SDS011;13279;51.300;12.394;2024-02-16T04:22:26;5.13;;;2.10;;
25327;SDS011;13279;51.300;12.394;2024-02-16T04:24:55;2.53;;;2.13;;
25327;SDS011;13279;51.300;12.394;2024-02-16T04:27:22;3.60;;;2.60;;
25327;SDS011;13279;51.300;12.394;2024-02-16T04:29:49;3.73;;;2.17;;
25327;SDS011;13279;51.300;12.394;2024-02-16T04:32:16;3.27;;;2.63;;
25327;SDS011;13279;51.300;12.394;2024-02-16T04:34:44;2.90;;;2.13;;
25327;SDS011;13279;51.300;12.394;2024-02-16T04:37:12;3.50;;;1.90;;
25327;SDS011;13279;51.300;12.394;2024-02-16T04:39:40;3.47;;;2.27;;
25327;SDS011;13279;51.300;12.394;2024-02-16T04:42:09;4.53;;;2.47;;
25327;SDS011;13279;51.300;12.394;2024-02-16T04:44:37;5.53;;;2.30;;
25327;SDS011;13279;51.300;12.394;2024-02-16T04:47:05;4.73;;;2.47;;
25327;SDS011;13279;51.300;12.394;2024-02-16T04:49:32;2.97;;;2.13;;
25327;SDS011;13279;51.300;12.394;2024-02-16T04:52:00;3.47;;;2.17;;
25327;SDS011;13279;51.300;12.394;2024-02-16T04:54:28;2.93;;;2.50;;
25327;SDS011;13279;51.300;12.394;2024-02-16T04:56:56;4.60;;;2.73;;
25327;SDS011;13279;51.300;12.394;2024-02-16T04:59:25;2.53;;;2.30;;
25327;SDS011;13279;51.300;12.394;2024-02-16T05:01:53;3.10;;;2.07;;
25327;SDS011;13279;51.300;12.394;2024-02-16T05:04:22;8.23;;;2.53;;
25327;SDS011;13279;51.300;12.394;2024-02-16T05:06:49;2.17;;;2.03;;
25327;SDS011;13279;51.300;12.394;2024-02-16T05:09:17;4.40;;;2.50;;
25327;SDS011;13279;51.300;12.394;2024-02-16T05:11:45;5.17;;;2.27;;
25327;SDS011;13279;51.300;12.394;2024-02-16T05:14:13;8.00;;;2.40;;
25327;SDS011;13279;51.300;12.394;2024-02-16T05:16:44;2.40;;;2.00;;
25327;SDS011;13279;51.300;12.394;2024-02-16T05:19:11;2.07;;;1.87;;
25327;SDS011;13279;51.300;12.394;2024-02-16T05:21:39;3.30;;;2.53;;
25327;SDS011;13279;51.300;12.394;2024-02-16T05:24:07;2.93;;;2.17;;
25327;SDS011;13279;51.300;12.394;2024-02-16T05:26:34;4.80;;;2.33;;
25327;SDS011;13279;51.300;12.394;2024-02-16T05:29:03;2.93;;;1.90;;
25327;SDS011;13279;51.300;12.394;2024-02-16T05:31:30;3.27;;;2.10;;
25327;SDS011;13279;51.300;12.394;2024-02-16T05:33:59;8.87;;;2.33;;
25327;SDS011;13279;51.300;12.394;2024-02-16T05:36:26;7.67;;;2.00;;
25327;SDS011;13279;51.300;12.394;2024-02-16T05:38:56;3.03;;;2.53;;
25327;SDS011;13279;51.300;12.394;2024-02-16T05:41:34;3.60;;;2.27;;
25327;SDS011;13279;51.300;12.394;2024-02-16T05:44:04;2.80;;;2.20;;
25327;SDS011;13279;51.300;12.394;2024-02-16T05:46:31;9.30;;;2.83;;
25327;SDS011;13279;51.300;12.394;2024-02-16T05:49:00;3.63;;;2.20;;
25327;SDS011;13279;51.300;12.394;2024-02-16T05:51:34;6.17;;;2.07;;
25327;SDS011;13279;51.300;12.394;2024-02-16T05:54:02;2.63;;;2.23;;
25327;SDS011;13279;51.300;12.394;2024-02-16T05:56:29;2.93;;;2.70;;
25327;SDS011;13279;51.300;12.394;2024-02-16T05:58:59;3.43;;;2.20;;
25327;SDS011;13279;51.300;12.394;2024-02-16T06:01:26;10.33;;;2.60;;
25327;SDS011;13279;51.300;12.394;2024-02-16T06:03:55;4.30;;;2.00;;
25327;SDS011;13279;51.300;12.394;2024-02-16T06:06:24;4.73;;;1.93;;
25327;SDS011;13279;51.300;12.394;2024-02-16T06:08:52;2.47;;;2.27;;
25327;SDS011;13279;51.300;12.394;2024-02-16T06:11:19;2.43;;;2.00;;
25327;SDS011;13279;51.300;12.394;2024-02-16T06:13:47;2.00;;;1.80;;
25327;SDS011;13279;51.300;12.394;2024-02-16T06:16:15;3.03;;;1.90;;
25327;SDS011;13279;51.300;12.394;2024-02-16T06:18:42;5.80;;;2.40;;
25327;SDS011;13279;51.300;12.394;2024-02-16T06:21:11;2.23;;;2.03;;
25327;SDS011;13279;51.300;12.394;2024-02-16T06:23:40;3.47;;;2.27;;
25327;SDS011;13279;51.300;12.394;2024-02-16T06:26:07;3.17;;;2.83;;
25327;SDS011;13279;51.300;12.394;2024-02-16T06:28:35;2.83;;;2.20;;
25327;SDS011;13279;51.300;12.394;2024-02-16T06:31:03;5.00;;;2.63;;
25327;SDS011;13279;51.300;12.394;2024-02-16T06:33:31;2.63;;;2.30;;
25327;SDS011;13279;51.300;12.394;2024-02-16T06:35:58;4.00;;;2.33;;
25327;SDS011;13279;51.300;12.394;2024-02-16T06:38:26;4.80;;;2.53;;
25327;SDS011;13279;51.300;12.394;2024-02-16T06:40:55;3.93;;;2.80;;
25327;SDS011;13279;51.300;12.394;2024-02-16T06:43:23;3.67;;;2.50;;
25327;SDS011;13279;51.300;12.394;2024-02-16T06:45:50;3.17;;;2.40;;
25327;SDS011;13279;51.300;12.394;2024-02-16T06:48:17;3.80;;;2.47;;
25327;SDS011;13279;51.300;12.394;2024-02-16T06:50:44;3.37;;;2.30;;
25327;SDS011;13279;51.300;12.394;2024-02-16T06:53:12;3.33;;;2.50;;
25327;SDS011;13279;51.300;12.394;2024-02-16T06:55:39;3.30;;;2.40;;
25327;SDS011;13279;51.300;12.394;2024-02-16T06:58:08;3.60;;;2.40;;
25327;SDS011;13279;51.300;12.394;2024-02-16T07:00:38;3.30;;;2.17;;
25327;SDS011;13279;51.300;12.394;2024-02-16T07:03:07;2.90;;;2.70;;
25327;SDS011;13279;51.300;12.394;2024-02-16T07:05:35;3.73;;;2.57;;
25327;SDS011;13279;51.300;12.394;2024-02-16T07:08:03;4.13;;;2.30;;
25327;SDS011;13279;51.300;12.394;2024-02-16T07:10:31;2.50;;;2.23;;
25327;SDS011;13279;51.300;12.394;2024-02-16T07:12:59;3.17;;;2.50;;
25327;SDS011;13279;51.300;12.394;2024-02-16T07:15:28;7.57;;;3.03;;
25327;SDS011;13279;51.300;12.394;2024-02-16T07:17:55;4.83;;;2.90;;
25327;SDS011;13279;51.300;12.394;2024-02-16T07:20:23;4.33;;;2.77;;
25327;SDS011;13279;51.300;12.394;2024-02-16T07:22:51;5.20;;;2.87;;
25327;SDS011;13279;51.300;12.394;2024-02-16T07:25:18;6.27;;;2.80;;
25327;SDS011;13279;51.300;12.394;2024-02-16T07:27:46;3.20;;;2.20;;
25327;SDS011;13279;51.300;12.394;2024-02-16T07:30:13;2.93;;;2.63;;
25327;SDS011;13279;51.300;12.394;2024-02-16T07:32:42;2.97;;;2.40;;
25327;SDS011;13279;51.300;12.394;2024-02-16T07:35:11;2.70;;;2.50;;
25327;SDS011;13279;51.300;12.394;2024-02-16T07:37:38;2.53;;;2.17;;
25327;SDS011;13279;51.300;12.394;2024-02-16T07:40:07;3.07;;;2.37;;
25327;SDS011;13279;51.300;12.394;2024-02-16T07:42:37;2.73;;;2.40;;
25327;SDS011;13279;51.300;12.394;2024-02-16T07:45:08;3.90;;;2.17;;
25327;SDS011;13279;51.300;12.394;2024-02-16T07:47:37;5.47;;;2.57;;
25327;SDS011;13279;51.300;12.394;2024-02-16T07:50:06;3.00;;;2.13;;
25327;SDS011;13279;51.300;12.394;2024-02-16T07:52:33;4.83;;;2.60;;
25327;SDS011;13279;51.300;12.394;2024-02-16T07:55:01;2.67;;;2.23;;
25327;SDS011;13279;51.300;12.394;2024-02-16T07:57:29;4.30;;;2.60;;
25327;SDS011;13279;51.300;12.394;2024-02-16T07:59:57;5.27;;;2.90;;
25327;SDS011;13279;51.300;12.394;2024-02-16T08:02:24;7.33;;;2.77;;
25327;SDS011;13279;51.300;12.394;2024-02-16T08:04:52;2.60;;;2.40;;
25327;SDS011;13279;51.300;12.394;2024-02-16T08:07:21;4.57;;;2.60;;
25327;SDS011;13279;51.300;12.394;2024-02-16T08:09:48;3.40;;;2.17;;
25327;SDS011;13279;51.300;12.394;2024-02-16T08:12:16;2.57;;;2.33;;
25327;SDS011;13279;51.300;12.394;2024-02-16T08:14:43;6.50;;;2.47;;
25327;SDS011;13279;51.300;12.394;2024-02-16T08:17:11;2.40;;;2.20;;
25327;SDS011;13279;51.300;12.394;2024-02-16T08:19:39;4.53;;;2.63;;
25327;SDS011;13279;51.300;12.394;2024-02-16T08:22:07;8.43;;;2.43;;
25327;SDS011;13279;51.300;12.394;2024-02-16T08:24:36;4.10;;;2.67;;
25327;SDS011;13279;51.300;12.394;2024-02-16T08:27:04;3.30;;;2.37;;
25327;SDS011;13279;51.300;12.394;2024-02-16T08:29:32;3.43;;;2.30;;
25327;SDS011;13279;51.300;12.394;2024-02-16T08:32:00;2.67;;;2.20;;
25327;SDS011;13279;51.300;12.394;2024-02-16T08:34:29;4.00;;;2.37;;
25327;SDS011;13279;51.300;12.394;2024-02-16T08:36:57;3.47;;;2.07;;
25327;SDS011;13279;51.300;12.394;2024-02-16T08:39:24;5.60;;;2.10;;
25327;SDS011;13279;51.300;12.394;2024-02-16T08:41:53;4.33;;;2.20;;
25327;SDS011;13279;51.300;12.394;2024-02-16T08:44:20;5.43;;;1.80;;
25327;SDS011;13279;51.300;12.394;2024-02-16T08:46:47;2.33;;;2.00;;
25327;SDS011;13279;51.300;12.394;2024-02-16T08:49:16;2.27;;;1.90;;
25327;SDS011;13279;51.300;12.394;2024-02-16T08:51:44;2.97;;;1.70;;
25327;SDS011;13279;51.300;12.394;2024-02-16T08:54:11;4.83;;;1.70;;
25327;SDS011;13279;51.300;12.394;2024-02-16T08:56:39;2.07;;;1.70;;
25327;SDS011;13279;51.300;12.394;2024-02-16T08:59:08;4.80;;;1.57;;
25327;SDS011;13279;51.300;12.394;2024-02-16T09:01:36;3.67;;;1.43;;
25327;SDS011;13279;51.300;12.394;2024-02-16T09:04:04;1.50;;;1.40;;
25327;SDS011;13279;51.300;12.394;2024-02-16T09:06:32;2.07;;;1.60;;
25327;SDS011;13279;51.300;12.394;2024-02-16T09:09:00;3.93;;;1.50;;
25327;SDS011;13279;51.300;12.394;2024-02-16T09:11:28;2.37;;;1.47;;
25327;SDS011;13279;51.300;12.394;2024-02-16T09:13:55;3.40;;;1.40;;
25327;SDS011;13279;51.300;12.394;2024-02-16T09:16:25;2.10;;;1.50;;
25327;SDS011;13279;51.300;12.394;2024-02-16T09:18:52;7.53;;;1.60;;
25327;SDS011;13279;51.300;12.394;2024-02-16T09:21:20;1.63;;;1.23;;
25327;SDS011;13279;51.300;12.394;2024-02-16T09:23:49;2.30;;;1.50;;
25327;SDS011;13279;51.300;12.394;2024-02-16T09:26:17;2.77;;;1.80;;
25327;SDS011;13279;51.300;12.394;2024-02-16T09:28:45;9.97;;;1.43;;
25327;SDS011;13279;51.300;12.394;2024-02-16T09:31:13;2.73;;;1.87;;
25327;SDS011;13279;51.300;12.394;2024-02-16T09:33:42;2.53;;;1.50;;
25327;SDS011;13279;51.300;12.394;2024-02-16T09:36:10;3.23;;;1.30;;
25327;SDS011;13279;51.300;12.394;2024-02-16T09:38:38;2.03;;;1.20;;
25327;SDS011;13279;51.300;12.394;2024-02-16T09:41:06;1.90;;;1.70;;
25327;SDS011;13279;51.300;12.394;2024-02-16T09:43:34;2.20;;;1.70;;
25327;SDS011;13279;51.300;12.394;2024-02-16T09:46:01;2.23;;;1.03;;
25327;SDS011;13279;51.300;12.394;2024-02-16T09:48:29;7.00;;;1.80;;
25327;SDS011;13279;51.300;12.394;2024-02-16T09:50:58;2.07;;;1.70;;
25327;SDS011;13279;51.300;12.394;2024-02-16T09:53:27;2.37;;;1.57;;
25327;SDS011;13279;51.300;12.394;2024-02-16T09:55:55;6.23;;;1.50;;
25327;SDS011;13279;51.300;12.394;2024-02-16T09:58:23;1.30;;;1.07;;
25327;SDS011;13279;51.300;12.394;2024-02-16T10:00:50;3.93;;;1.30;;
25327;SDS011;13279;51.300;12.394;2024-02-16T10:03:24;3.47;;;1.40;;
25327;SDS011;13279;51.300;12.394;2024-02-16T10:05:52;2.70;;;1.50;;
25327;SDS011;13279;51.300;12.394;2024-02-16T10:08:32;1.73;;;1.40;;
25327;SDS011;13279;51.300;12.394;2024-02-16T10:11:03;2.80;;;1.63;;
25327;SDS011;13279;51.300;12.394;2024-02-16T10:13:31;2.10;;;1.33;;
25327;SDS011;13279;51.300;12.394;2024-02-16T10:16:04;2.10;;;1.60;;
25327;SDS011;13279;51.300;12.394;2024-02-16T10:18:34;3.60;;;1.40;;
25327;SDS011;13279;51.300;12.394;2024-02-16T10:21:01;9.60;;;1.47;;
25327;SDS011;13279;51.300;12.394;2024-02-16T10:23:30;3.53;;;1.30;;
25327;SDS011;13279;51.300;12.394;2024-02-16T10:25:58;4.60;;;1.70;;
25327;SDS011;13279;51.300;12.394;2024-02-16T10:28:27;1.90;;;1.40;;
25327;SDS011;13279;51.300;12.394;2024-02-16T10:30:57;6.63;;;1.80;;
25327;SDS011;13279;51.300;12.394;2024-02-16T10:33:27;2.00;;;1.53;;
25327;SDS011;13279;51.300;12.394;2024-02-16T10:35:55;1.90;;;1.77;;
25327;SDS011;13279;51.300;12.394;2024-02-16T10:38:24;1.90;;;1.70;;
25327;SDS011;13279;51.300;12.394;2024-02-16T10:40:54;2.43;;;1.67;;
25327;SDS011;13279;51.300;12.394;2024-02-16T10:43:25;2.90;;;1.77;;
25327;SDS011;13279;51.300;12.394;2024-02-16T10:45:54;1.27;;;1.17;;
25327;SDS011;13279;51.300;12.394;2024-02-16T10:48:23;1.43;;;1.33;;
25327;SDS011;13279;51.300;12.394;2024-02-16T10:50:51;3.00;;;1.70;;
25327;SDS011;13279;51.300;12.394;2024-02-16T10:53:21;2.23;;;1.53;;
25327;SDS011;13279;51.300;12.394;2024-02-16T10:55:52;3.80;;;1.80;;
25327;SDS011;13279;51.300;12.394;2024-02-16T10:58:21;2.30;;;1.57;;
25327;SDS011;13279;51.300;12.394;2024-02-16T11:00:49;1.70;;;1.60;;
25327;SDS011;13279;51.300;12.394;2024-02-16T11:03:18;1.60;;;1.27;;
25327;SDS011;13279;51.300;12.394;2024-02-16T11:05:50;2.60;;;1.70;;
25327;SDS011;13279;51.300;12.394;2024-02-16T11:08:17;2.43;;;1.50;;
25327;SDS011;13279;51.300;12.394;2024-02-16T11:10:56;3.23;;;1.80;;
25327;SDS011;13279;51.300;12.394;2024-02-16T11:13:25;1.80;;;1.50;;
25327;SDS011;13279;51.300;12.394;2024-02-16T11:15:57;3.30;;;1.93;;
25327;SDS011;13279;51.300;12.394;2024-02-16T11:18:26;4.00;;;1.67;;
25327;SDS011;13279;51.300;12.394;2024-02-16T11:20:53;1.70;;;1.60;;
25327;SDS011;13279;51.300;12.394;2024-02-16T11:23:24;5.80;;;1.60;;
25327;SDS011;13279;51.300;12.394;2024-02-16T11:25:54;5.40;;;1.53;;
25327;SDS011;13279;51.300;12.394;2024-02-16T11:28:29;1.83;;;1.43;;
25327;SDS011;13279;51.300;12.394;2024-02-16T11:30:58;5.23;;;1.80;;
25327;SDS011;13279;51.300;12.394;2024-02-16T11:33:26;2.40;;;1.30;;
25327;SDS011;13279;51.300;12.394;2024-02-16T11:35:54;3.97;;;2.00;;
25327;SDS011;13279;51.300;12.394;2024-02-16T11:38:22;2.03;;;1.70;;
25327;SDS011;13279;51.300;12.394;2024-02-16T11:40:54;4.20;;;1.53;;
25327;SDS011;13279;51.300;12.394;2024-02-16T11:43:22;8.43;;;1.83;;
25327;SDS011;13279;51.300;12.394;2024-02-16T11:45:51;10.80;;;1.70;;
25327;SDS011;13279;51.300;12.394;2024-02-16T11:48:20;2.47;;;1.57;;
25327;SDS011;13279;51.300;12.394;2024-02-16T11:50:48;3.00;;;1.63;;
25327;SDS011;13279;51.300;12.394;2024-02-16T11:53:17;2.37;;;1.70;;
25327;SDS011;13279;51.300;12.394;2024-02-16T11:55:49;4.30;;;1.53;;
25327;SDS011;13279;51.300;12.394;2024-02-16T11:58:17;1.83;;;1.50;;
25327;SDS011;13279;51.300;12.394;2024-02-16T12:00:45;6.77;;;2.20;;
25327;SDS011;13279;51.300;12.394;2024-02-16T12:03:19;1.70;;;1.60;;
25327;SDS011;13279;51.300;12.394;2024-02-16T12:05:50;3.13;;;1.80;;
25327;SDS011;13279;51.300;12.394;2024-02-16T12:08:18;2.37;;;1.73;;
25327;SDS011;13279;51.300;12.394;2024-02-16T12:10:46;2.90;;;1.80;;
25327;SDS011;13279;51.300;12.394;2024-02-16T12:13:15;3.70;;;1.77;;
25327;SDS011;13279;51.300;12.394;2024-02-16T12:15:44;2.00;;;1.60;;
25327;SDS011;13279;51.300;12.394;2024-02-16T12:18:20;2.60;;;1.57;;
25327;SDS011;13279;51.300;12.394;2024-02-16T12:20:58;7.00;;;1.43;;
25327;SDS011;13279;51.300;12.394;2024-02-16T12:23:26;1.93;;;1.33;;
25327;SDS011;13279;51.300;12.394;2024-02-16T12:25:54;1.43;;;1.33;;
25327;SDS011;13279;51.300;12.394;2024-02-16T12:28:23;2.60;;;1.40;;
25327;SDS011;13279;51.300;12.394;2024-02-16T12:30:53;1.33;;;1.23;;
25327;SDS011;13279;51.300;12.394;2024-02-16T12:33:22;3.27;;;1.50;;
25327;SDS011;13279;51.300;12.394;2024-02-16T12:35:49;1.43;;;1.10;;
25327;SDS011;13279;51.300;12.394;2024-02-16T12:38:16;1.77;;;1.40;;
25327;SDS011;13279;51.300;12.394;2024-02-16T12:40:44;1.87;;;1.40;;
25327;SDS011;13279;51.300;12.394;2024-02-16T12:43:12;1.97;;;1.30;;
25327;SDS011;13279;51.300;12.394;2024-02-16T12:45:40;2.60;;;1.73;;
25327;SDS011;13279;51.300;12.394;2024-02-16T12:48:07;3.30;;;1.57;;
25327;SDS011;13279;51.300;12.394;2024-02-16T12:50:37;4.27;;;1.57;;
25327;SDS011;13279;51.300;12.394;2024-02-16T12:53:06;1.80;;;1.57;;
25327;SDS011;13279;51.300;12.394;2024-02-16T12:55:34;2.63;;;1.47;;
25327;SDS011;13279;51.300;12.394;2024-02-16T12:58:01;3.30;;;1.40;;
25327;SDS011;13279;51.300;12.394;2024-02-16T13:00:29;2.77;;;1.60;;
25327;SDS011;13279;51.300;12.394;2024-02-16T13:02:57;1.83;;;1.43;;
25327;SDS011;13279;51.300;12.394;2024-02-16T13:05:24;1.43;;;1.20;;
25327;SDS011;13279;51.300;12.394;2024-02-16T13:07:54;7.90;;;1.90;;
25327;SDS011;13279;51.300;12.394;2024-02-16T13:10:21;8.30;;;1.40;;
25327;SDS011;13279;51.300;12.394;2024-02-16T13:12:49;2.43;;;1.60;;
25327;SDS011;13279;51.300;12.394;2024-02-16T13:15:19;2.20;;;1.53;;
25327;SDS011;13279;51.300;12.394;2024-02-16T13:17:47;1.67;;;1.53;;
25327;SDS011;13279;51.300;12.394;2024-02-16T13:20:14;4.40;;;1.40;;
25327;SDS011;13279;51.300;12.394;2024-02-16T13:22:42;3.40;;;1.43;;
25327;SDS011;13279;51.300;12.394;2024-02-16T13:25:11;1.80;;;1.30;;
25327;SDS011;13279;51.300;12.394;2024-02-16T13:27:39;3.57;;;1.57;;
25327;SDS011;13279;51.300;12.394;2024-02-16T13:30:06;1.67;;;1.57;;
25327;SDS011;13279;51.300;12.394;2024-02-16T13:32:34;3.00;;;1.50;;
25327;SDS011;13279;51.300;12.394;2024-02-16T13:35:05;6.37;;;1.57;;
25327;SDS011;13279;51.300;12.394;2024-02-16T13:37:33;1.30;;;1.20;;
25327;SDS011;13279;51.300;12.394;2024-02-16T13:40:00;5.03;;;1.43;;
25327;SDS011;13279;51.300;12.394;2024-02-16T13:42:31;3.80;;;1.63;;
25327;SDS011;13279;51.300;12.394;2024-02-16T13:44:59;2.33;;;1.43;;
25327;SDS011;13279;51.300;12.394;2024-02-16T13:47:26;1.77;;;1.53;;
25327;SDS011;13279;51.300;12.394;2024-02-16T13:49:53;3.50;;;1.40;;
25327;SDS011;13279;51.300;12.394;2024-02-16T13:52:22;1.27;;;1.10;;
25327;SDS011;13279;51.300;12.394;2024-02-16T13:54:50;2.60;;;1.27;;
25327;SDS011;13279;51.300;12.394;2024-02-16T13:57:18;2.17;;;1.53;;
25327;SDS011;13279;51.300;12.394;2024-02-16T13:59:46;2.97;;;1.60;;
25327;SDS011;13279;51.300;12.394;2024-02-16T14:02:14;2.83;;;1.40;;
25327;SDS011;13279;51.300;12.394;2024-02-16T14:04:41;4.93;;;1.30;;
25327;SDS011;13279;51.300;12.394;2024-02-16T14:07:09;1.73;;;1.57;;
25327;SDS011;13279;51.300;12.394;2024-02-16T14:09:36;2.93;;;1.53;;
25327;SDS011;13279;51.300;12.394;2024-02-16T14:12:04;5.83;;;1.73;;
25327;SDS011;13279;51.300;12.394;2024-02-16T14:14:32;2.63;;;1.87;;
25327;SDS011;13279;51.300;12.394;2024-02-16T14:17:01;4.47;;;1.70;;
25327;SDS011;13279;51.300;12.394;2024-02-16T14:19:28;5.90;;;1.53;;
25327;SDS011;13279;51.300;12.394;2024-02-16T14:21:56;2.90;;;1.47;;
25327;SDS011;13279;51.300;12.394;2024-02-16T14:24:23;5.97;;;1.90;;
25327;SDS011;13279;51.300;12.394;2024-02-16T14:26:51;1.97;;;1.60;;
25327;SDS011;13279;51.300;12.394;2024-02-16T14:29:19;1.83;;;1.20;;
25327;SDS011;13279;51.300;12.394;2024-02-16T14:31:46;2.93;;;1.70;;
25327;SDS011;13279;51.300;12.394;2024-02-16T14:34:16;6.83;;;1.83;;
25327;SDS011;13279;51.300;12.394;2024-02-16T14:36:43;7.17;;;1.80;;
25327;SDS011;13279;51.300;12.394;2024-02-16T14:39:11;4.43;;;1.50;;